createdAt,value
2022-08-08T00:00:52.315Z,3.50
2022-08-08T00:03:32.141Z,3.58
2022-08-08T00:06:28.670Z,3.63
2022-08-08T00:09:35.203Z,3.58
2022-08-08T00:12:24.636Z,3.60
2022-08-08T00:15:56.696Z,3.63
2022-08-08T00:18:54.291Z,3.47
2022-08-08T00:21:48.226Z,4.13
2022-08-08T00:24:36.264Z,3.65
2022-08-08T00:27:26.197Z,3.80
2022-08-08T00:30:17.612Z,3.78
2022-08-08T00:33:24.117Z,3.80
2022-08-08T00:36:19.233Z,4.10
2022-08-08T00:39:36.211Z,3.85
2022-08-08T00:42:31.499Z,4.00
2022-08-08T00:45:54.221Z,4.00
2022-08-08T00:49:01.258Z,3.70
2022-08-08T00:51:51.023Z,3.92
2022-08-08T00:54:59.201Z,4.00
2022-08-08T00:58:30.837Z,4.63
2022-08-08T01:01:39.266Z,4.10
2022-08-08T01:05:28.982Z,4.53
2022-08-08T01:08:40.207Z,4.88
2022-08-08T01:11:36.405Z,4.30
2022-08-08T01:14:54.186Z,4.47
2022-08-08T01:18:51.134Z,4.30
2022-08-08T01:22:10.308Z,4.45
2022-08-08T01:25:16.686Z,4.53
2022-08-08T01:28:27.719Z,4.00
2022-08-08T01:32:13.422Z,4.03
2022-08-08T01:35:14.206Z,3.80
2022-08-08T01:38:18.286Z,3.78
2022-08-08T01:44:09.627Z,3.85
2022-08-08T01:48:14.771Z,3.72
2022-08-08T01:50:48.789Z,3.70
2022-08-08T01:55:15.493Z,3.80
2022-08-08T01:57:18.227Z,3.65
2022-08-08T02:00:38.282Z,3.45
2022-08-08T02:03:57.621Z,4.00
2022-08-08T02:07:27.282Z,3.58
2022-08-08T02:10:45.045Z,3.88
2022-08-08T02:13:54.209Z,3.75
2022-08-08T02:16:59.239Z,4.05
2022-08-08T02:20:16.173Z,4.05
2022-08-08T02:23:36.789Z,3.97
2022-08-08T02:26:45.227Z,3.97
2022-08-08T02:30:04.093Z,3.60
2022-08-08T02:33:14.221Z,4.10
2022-08-08T02:36:50.212Z,3.70
2022-08-08T02:40:12.109Z,3.90
2022-08-08T02:44:38.105Z,3.80
2022-08-08T02:46:36.205Z,3.70
2022-08-08T02:50:08.219Z,3.95
2022-08-08T02:53:59.506Z,4.05
2022-08-08T02:56:50.927Z,3.97
2022-08-08T03:00:26.370Z,3.42
2022-08-08T03:05:00.631Z,3.63
2022-08-08T03:07:09.222Z,3.90
2022-08-08T03:10:32.547Z,3.80
2022-08-08T03:15:57.188Z,3.60
2022-08-08T03:17:04.218Z,3.78
2022-08-08T03:20:17.240Z,3.55
2022-08-08T03:23:00.616Z,3.72
2022-08-08T03:25:53.212Z,3.47
2022-08-08T03:28:40.897Z,4.18
2022-08-08T03:32:05.979Z,3.92
2022-08-08T03:34:47.361Z,3.90
2022-08-08T03:38:54.150Z,4.25
2022-08-08T03:40:34.334Z,4.32
2022-08-08T03:43:23.214Z,4.35
2022-08-08T03:46:13.316Z,4.40
2022-08-08T03:49:58.846Z,4.63
2022-08-08T03:52:12.993Z,4.90
2022-08-08T03:55:02.465Z,4.90
2022-08-08T03:58:36.269Z,5.13
2022-08-08T04:01:23.183Z,5.15
2022-08-08T04:04:11.339Z,5.30
2022-08-08T04:07:06.233Z,5.20
2022-08-08T04:10:05.430Z,5.15
2022-08-08T04:15:38.782Z,5.47
2022-08-08T04:18:20.238Z,5.13
2022-08-08T04:21:07.239Z,5.47
2022-08-08T04:24:05.251Z,6.03
2022-08-08T04:26:58.728Z,5.78
2022-08-08T04:29:38.284Z,5.78
2022-08-08T04:32:34.003Z,5.13
2022-08-08T04:35:15.298Z,5.25
2022-08-08T04:38:02.232Z,5.20
2022-08-08T04:40:54.197Z,4.88
2022-08-08T04:43:46.259Z,4.93
2022-08-08T04:46:36.249Z,5.60
2022-08-08T04:49:29.030Z,5.38
2022-08-08T04:52:27.405Z,5.00
2022-08-08T04:55:19.295Z,5.68
2022-08-08T04:58:12.024Z,5.43
2022-08-08T05:00:54.291Z,5.18
2022-08-08T05:04:09.876Z,5.78
2022-08-08T05:06:48.119Z,5.20
2022-08-08T05:09:39.229Z,5.05
2022-08-08T05:12:21.276Z,5.43
2022-08-08T05:15:08.247Z,5.72
2022-08-08T05:18:00.257Z,5.28
2022-08-08T05:20:50.015Z,5.70
2022-08-08T05:23:41.220Z,5.13
2022-08-08T05:26:27.535Z,5.28
2022-08-08T05:29:15.225Z,5.53
2022-08-08T05:32:03.246Z,5.18
2022-08-08T05:34:57.249Z,5.68
2022-08-08T05:37:51.988Z,5.60
2022-08-08T05:40:58.080Z,5.45
2022-08-08T05:44:03.925Z,6.10
2022-08-08T05:46:51.448Z,5.25
2022-08-08T05:49:32.259Z,4.95
2022-08-08T05:52:35.530Z,4.95
2022-08-08T05:55:16.247Z,4.47
2022-08-08T05:58:17.920Z,4.50
2022-08-08T06:01:03.238Z,4.40
2022-08-08T06:03:56.344Z,4.18
2022-08-08T06:06:38.238Z,4.10
2022-08-08T06:09:58.187Z,4.60
2022-08-08T06:12:42.731Z,4.10
2022-08-08T06:15:50.034Z,3.88
2022-08-08T06:18:38.007Z,3.58
2022-08-08T06:21:48.937Z,3.60
2022-08-08T06:24:35.973Z,3.25
2022-08-08T06:27:24.251Z,3.22
2022-08-08T06:30:20.430Z,3.03
2022-08-08T06:33:13.154Z,3.20
2022-08-08T06:36:06.640Z,3.80
2022-08-08T06:39:01.272Z,3.10
2022-08-08T06:41:55.159Z,3.00
2022-08-08T06:44:55.247Z,3.08
2022-08-08T06:47:52.479Z,3.08
2022-08-08T06:50:44.261Z,2.90
2022-08-08T06:53:38.842Z,3.08
2022-08-08T06:56:27.249Z,2.60
2022-08-08T06:59:20.245Z,2.50
2022-08-08T07:02:27.440Z,2.38
2022-08-08T07:05:24.903Z,2.50
2022-08-08T07:08:24.316Z,2.40
2022-08-08T07:11:09.273Z,2.40
2022-08-08T07:14:11.317Z,2.58
2022-08-08T07:17:09.227Z,2.40
2022-08-08T07:20:12.246Z,2.70
2022-08-08T07:23:15.272Z,2.38
2022-08-08T07:28:51.265Z,2.20
2022-08-08T07:31:43.253Z,2.00
2022-08-08T07:34:31.360Z,2.20
2022-08-08T07:37:25.267Z,1.80
2022-08-08T07:40:06.490Z,1.90
2022-08-08T07:42:58.270Z,1.80
2022-08-08T07:46:05.339Z,1.90
2022-08-08T07:48:48.383Z,1.75
2022-08-08T07:51:45.252Z,1.83
2022-08-08T07:55:03.270Z,1.50
2022-08-08T07:57:54.331Z,1.50
2022-08-08T08:00:49.303Z,1.70
2022-08-08T08:04:06.278Z,1.60
2022-08-08T08:06:53.431Z,1.55
2022-08-08T08:09:45.261Z,1.75
2022-08-08T08:12:35.454Z,1.83
2022-08-08T08:15:33.273Z,1.63
2022-08-08T08:18:14.572Z,1.52
2022-08-08T08:23:51.111Z,1.52
2022-08-08T08:26:38.290Z,1.55
2022-08-08T08:29:19.538Z,1.58
2022-08-08T08:32:06.334Z,1.50
2022-08-08T08:34:52.283Z,1.50
2022-08-08T08:38:05.831Z,1.52
2022-08-08T08:40:40.387Z,1.63
2022-08-08T08:43:31.372Z,1.27
2022-08-08T08:46:25.742Z,1.60
2022-08-08T08:49:12.285Z,1.50
2022-08-08T08:51:56.353Z,1.33
2022-08-08T08:54:43.273Z,1.50
2022-08-08T08:57:31.322Z,1.73
2022-08-08T09:00:19.195Z,1.40
2022-08-08T09:03:12.266Z,1.50
2022-08-08T09:06:01.295Z,1.20
2022-08-08T09:08:53.339Z,1.30
2022-08-08T09:11:47.375Z,1.50
2022-08-08T09:14:48.293Z,1.33
2022-08-08T09:17:41.837Z,1.33
2022-08-08T09:21:56.801Z,1.30
2022-08-08T09:23:47.791Z,1.15
2022-08-08T09:27:03.278Z,1.10
2022-08-08T09:30:14.781Z,1.30
2022-08-08T09:33:54.221Z,1.30
2022-08-08T09:36:05.294Z,1.10
2022-08-08T09:39:02.345Z,1.40
2022-08-08T09:42:14.139Z,1.33
2022-08-08T09:45:55.035Z,1.33
2022-08-08T09:48:27.921Z,1.30
2022-08-08T09:51:28.299Z,1.58
2022-08-08T09:54:35.731Z,1.27
2022-08-08T09:57:46.015Z,1.48
2022-08-08T10:00:52.984Z,1.40
2022-08-08T10:03:39.619Z,1.20
2022-08-08T10:06:29.687Z,1.30
2022-08-08T10:09:16.285Z,1.30
2022-08-08T10:12:26.491Z,1.45
2022-08-08T10:15:17.898Z,1.30
2022-08-08T10:18:06.721Z,1.23
2022-08-08T10:21:03.501Z,1.63
2022-08-08T10:23:58.586Z,1.75
2022-08-08T10:26:59.430Z,1.23
2022-08-08T10:30:15.953Z,1.27
2022-08-08T10:36:07.578Z,1.20
2022-08-08T10:38:51.301Z,1.20
2022-08-08T10:42:13.058Z,1.50
2022-08-08T10:44:45.883Z,1.40
2022-08-08T10:47:34.801Z,1.30
2022-08-08T10:50:42.560Z,1.65
2022-08-08T10:53:22.345Z,1.13
2022-08-08T10:56:32.125Z,1.20
2022-08-08T10:59:21.301Z,1.23
2022-08-08T11:02:02.870Z,1.20
2022-08-08T11:04:58.306Z,1.25
2022-08-08T11:08:38.593Z,1.30
2022-08-08T11:11:59.863Z,1.30
2022-08-08T11:14:16.139Z,1.20
2022-08-08T11:16:57.304Z,1.40
2022-08-08T11:19:42.363Z,1.13
2022-08-08T11:22:38.315Z,1.30
2022-08-08T11:25:53.000Z,1.40
2022-08-08T11:28:33.319Z,1.13
2022-08-08T11:31:46.899Z,1.40
2022-08-08T11:34:52.568Z,1.20
2022-08-08T11:38:38.758Z,1.60
2022-08-08T11:40:51.729Z,1.23
2022-08-08T11:43:39.335Z,1.10
2022-08-08T11:46:33.310Z,1.40
2022-08-08T11:49:18.374Z,1.25
2022-08-08T11:52:06.313Z,1.20
2022-08-08T11:54:50.385Z,1.20
2022-08-08T11:57:41.312Z,1.10
2022-08-08T12:00:25.386Z,1.30
2022-08-08T12:03:23.423Z,1.30
2022-08-08T12:06:03.382Z,1.10
2022-08-08T12:08:51.339Z,1.00
2022-08-08T12:11:31.365Z,1.00
2022-08-08T12:14:29.529Z,1.10
2022-08-08T12:17:16.331Z,1.08
2022-08-08T12:20:04.864Z,1.20
2022-08-08T12:23:00.335Z,1.33
2022-08-08T12:25:52.698Z,1.40
2022-08-08T12:28:36.407Z,1.25
2022-08-08T12:31:53.919Z,1.00
2022-08-08T12:35:01.399Z,1.35
2022-08-08T12:38:01.405Z,1.17
2022-08-08T12:40:55.913Z,1.20
2022-08-08T12:43:46.173Z,1.10
2022-08-08T12:46:45.346Z,1.10
2022-08-08T12:49:43.415Z,0.93
2022-08-08T12:52:38.436Z,1.08
2022-08-08T12:55:35.453Z,1.00
2022-08-08T12:58:42.336Z,1.10
2022-08-08T13:01:56.617Z,1.00
2022-08-08T13:04:38.381Z,1.10
2022-08-08T13:08:02.136Z,1.10
2022-08-08T13:10:28.140Z,1.15
2022-08-08T13:13:15.339Z,1.10
2022-08-08T13:16:02.334Z,1.10
2022-08-08T13:18:58.438Z,1.15
2022-08-08T13:21:55.678Z,1.10
2022-08-08T13:24:52.325Z,1.10
2022-08-08T13:27:37.139Z,1.10
2022-08-08T13:30:26.436Z,1.30
2022-08-08T13:33:06.454Z,1.00
2022-08-08T13:35:53.349Z,1.20
2022-08-08T13:38:33.516Z,1.20
2022-08-08T13:41:21.842Z,1.08
2022-08-08T13:44:01.377Z,1.10
2022-08-08T13:47:07.077Z,1.10
2022-08-08T13:50:35.036Z,1.00
2022-08-08T13:53:22.643Z,0.98
2022-08-08T13:56:13.358Z,1.00
2022-08-08T13:59:01.424Z,1.20
2022-08-08T14:01:52.881Z,1.10
2022-08-08T14:04:52.708Z,1.10
2022-08-08T14:07:35.434Z,1.00
2022-08-08T14:10:32.919Z,1.15
2022-08-08T14:13:33.287Z,0.98
2022-08-08T14:16:22.336Z,1.20
2022-08-08T14:19:10.661Z,1.08
2022-08-08T14:21:57.342Z,1.00
2022-08-08T14:24:45.365Z,1.13
2022-08-08T14:27:34.186Z,1.00
2022-08-08T14:30:18.997Z,1.10
2022-08-08T14:33:12.885Z,1.30
2022-08-08T14:36:20.338Z,1.10
2022-08-08T14:39:11.848Z,1.20
2022-08-08T14:41:55.039Z,1.20
2022-08-08T14:44:48.364Z,1.40
2022-08-08T14:47:38.422Z,1.10
2022-08-08T14:50:38.087Z,1.20
2022-08-08T14:53:30.358Z,1.02
2022-08-08T14:56:17.373Z,1.23
2022-08-08T14:59:04.415Z,1.13
2022-08-08T15:02:04.383Z,1.00
2022-08-08T15:04:51.361Z,1.27
2022-08-08T15:07:39.410Z,1.10
2022-08-08T15:10:29.378Z,1.15
2022-08-08T15:13:15.478Z,1.10
2022-08-08T15:16:03.882Z,1.20
2022-08-08T15:18:53.360Z,1.10
2022-08-08T15:21:33.864Z,1.20
2022-08-08T15:24:24.384Z,1.10
2022-08-08T15:27:57.570Z,1.20
2022-08-08T15:30:20.389Z,1.10
2022-08-08T15:33:07.662Z,1.42
2022-08-08T15:35:48.379Z,1.20
2022-08-08T15:38:35.417Z,1.10
2022-08-08T15:41:24.578Z,1.00
2022-08-08T15:44:13.657Z,1.17
2022-08-08T15:47:00.372Z,1.27
2022-08-08T15:49:48.919Z,1.00
2022-08-08T15:52:29.500Z,1.05
2022-08-08T15:55:19.382Z,1.00
2022-08-08T15:58:14.368Z,1.25
2022-08-08T16:01:01.402Z,1.30
2022-08-08T16:03:41.422Z,1.20
2022-08-08T16:06:31.036Z,1.30
2022-08-08T16:13:11.732Z,1.10
2022-08-08T16:13:27.172Z,1.27
2022-08-08T16:15:18.396Z,1.40
2022-08-08T16:18:11.789Z,1.30
2022-08-08T16:21:00.193Z,1.30
2022-08-08T16:23:47.398Z,1.10
2022-08-08T16:26:36.432Z,1.30
2022-08-08T16:29:19.378Z,1.42
2022-08-08T16:32:27.747Z,1.40
2022-08-08T16:35:08.389Z,1.30
2022-08-08T16:37:55.376Z,1.30
2022-08-08T16:40:35.497Z,1.40
2022-08-08T16:43:22.387Z,1.27
2022-08-08T16:46:36.335Z,1.40
2022-08-08T16:49:10.386Z,1.30
2022-08-08T16:55:06.020Z,1.52
2022-08-08T16:55:27.996Z,1.30
2022-08-08T16:58:14.659Z,1.33
2022-08-08T17:01:05.646Z,1.45
2022-08-08T17:04:00.858Z,1.50
2022-08-08T17:06:44.225Z,1.88
2022-08-08T17:09:34.862Z,1.60
2022-08-08T17:12:31.797Z,1.55
2022-08-08T17:15:20.204Z,1.50
2022-08-08T17:18:03.538Z,1.58
2022-08-08T17:20:51.389Z,1.23
2022-08-08T17:23:57.922Z,1.40
2022-08-08T17:26:39.402Z,1.38
2022-08-08T17:29:26.481Z,1.48
2022-08-08T17:32:07.981Z,1.60
2022-08-08T17:35:51.966Z,1.60
2022-08-08T17:37:58.369Z,1.20
2022-08-08T17:40:45.561Z,1.38
2022-08-08T17:43:28.392Z,1.55
2022-08-08T17:46:55.354Z,1.65
2022-08-08T17:49:42.524Z,1.60
2022-08-08T17:52:31.397Z,1.50
2022-08-08T17:56:05.118Z,1.70
2022-08-08T17:58:23.410Z,1.50
2022-08-08T18:01:07.459Z,1.40
2022-08-08T18:03:57.382Z,1.20
2022-08-08T18:06:44.524Z,1.63
2022-08-08T18:09:26.734Z,1.35
2022-08-08T18:12:19.400Z,1.40
2022-08-08T18:15:02.707Z,1.70
2022-08-08T18:18:09.882Z,1.60
2022-08-08T18:20:59.203Z,1.38
2022-08-08T18:23:47.105Z,1.60
2022-08-08T18:26:42.394Z,1.20
2022-08-08T18:29:27.458Z,1.52
2022-08-08T18:32:17.423Z,1.70
2022-08-08T18:34:58.738Z,1.60
2022-08-08T18:37:47.883Z,1.40
2022-08-08T18:40:35.070Z,1.10
2022-08-08T18:43:22.398Z,1.30
2022-08-08T18:46:55.464Z,1.48
2022-08-08T18:49:12.394Z,1.42
2022-08-08T18:51:55.793Z,1.50
2022-08-08T18:54:42.394Z,1.30
2022-08-08T18:57:37.290Z,1.67
2022-08-08T19:00:28.402Z,1.65
2022-08-08T19:03:09.574Z,1.63
2022-08-08T19:05:56.409Z,1.52
2022-08-08T19:08:43.395Z,1.30
2022-08-08T19:11:24.904Z,1.70
2022-08-08T19:14:20.418Z,1.60
2022-08-08T19:17:07.472Z,1.50
2022-08-08T19:20:02.083Z,1.50
2022-08-08T19:22:49.406Z,1.40
2022-08-08T19:26:19.767Z,1.90
2022-08-08T19:28:36.693Z,1.50
2022-08-08T19:31:23.423Z,1.45
2022-08-08T19:34:29.968Z,1.50
2022-08-08T19:37:18.428Z,1.30
2022-08-08T19:40:31.039Z,1.60
2022-08-08T19:43:19.670Z,1.55
2022-08-08T19:46:02.429Z,1.40
2022-08-08T19:48:50.395Z,1.48
2022-08-08T19:51:34.670Z,1.70
2022-08-08T19:54:30.402Z,1.85
2022-08-08T19:57:10.513Z,1.75
2022-08-08T20:00:01.410Z,1.70
2022-08-08T20:02:42.497Z,1.67
2022-08-08T20:06:14.229Z,1.45
2022-08-08T20:08:32.013Z,1.90
2022-08-08T20:11:18.414Z,1.92
2022-08-08T20:14:32.574Z,1.65
2022-08-08T20:17:08.416Z,1.65
2022-08-08T20:19:58.410Z,1.83
2022-08-08T20:22:40.827Z,2.13
2022-08-08T20:25:30.063Z,1.70
2022-08-08T20:28:18.737Z,1.50
2022-08-08T20:31:07.412Z,1.67
2022-08-08T20:34:30.628Z,1.80
2022-08-08T20:36:57.423Z,1.63
2022-08-08T20:39:41.702Z,1.70
2022-08-08T20:42:42.422Z,1.70
2022-08-08T20:45:54.907Z,1.77
2022-08-08T20:48:30.436Z,2.00
2022-08-08T20:51:17.428Z,1.85
2022-08-08T20:54:04.248Z,1.60
2022-08-08T20:57:16.436Z,1.80
2022-08-08T21:00:05.635Z,1.63
2022-08-08T21:02:52.577Z,1.70
2022-08-08T21:05:49.218Z,1.63
2022-08-08T21:08:49.254Z,1.98
2022-08-08T21:11:51.742Z,1.58
2022-08-08T21:14:34.679Z,1.70
2022-08-08T21:17:21.477Z,1.73
2022-08-08T21:20:03.795Z,1.77
2022-08-08T21:22:57.422Z,2.20
2022-08-08T21:25:44.438Z,2.08
2022-08-08T21:28:35.642Z,1.90
2022-08-08T21:31:23.785Z,1.80
2022-08-08T21:34:03.494Z,1.90
2022-08-08T21:37:01.009Z,1.90
2022-08-08T21:39:57.169Z,1.90
2022-08-08T21:42:44.440Z,1.73
2022-08-08T21:47:59.339Z,1.70
2022-08-08T21:48:49.190Z,2.05
2022-08-08T21:54:33.386Z,1.90
2022-08-08T21:55:01.382Z,1.92
2022-08-08T21:58:04.264Z,2.00
2022-08-08T22:00:55.076Z,1.80
2022-08-08T22:03:36.420Z,2.13
2022-08-08T22:06:28.655Z,1.95
2022-08-08T22:09:20.445Z,2.28
2022-08-08T22:12:14.950Z,2.40
2022-08-08T22:15:05.433Z,2.10
2022-08-08T22:17:53.478Z,2.38
2022-08-08T22:20:34.439Z,2.00
2022-08-08T22:23:32.642Z,2.10
2022-08-08T22:26:26.597Z,1.80
2022-08-08T22:29:58.672Z,2.10
2022-08-08T22:32:15.479Z,2.00
2022-08-08T22:35:04.485Z,2.10
2022-08-08T22:37:54.147Z,2.13
2022-08-08T22:40:35.005Z,1.98
2022-08-08T22:43:21.426Z,1.98
2022-08-08T22:46:02.949Z,2.08
2022-08-08T22:48:51.436Z,2.20
2022-08-08T22:51:42.829Z,2.00
2022-08-08T22:54:33.311Z,2.13
2022-08-08T22:57:44.232Z,2.10
2022-08-08T23:00:36.613Z,2.33
2022-08-08T23:03:19.512Z,2.00
2022-08-08T23:06:08.542Z,1.90
2022-08-08T23:08:56.014Z,2.10
2022-08-08T23:12:28.618Z,2.20
2022-08-08T23:14:53.235Z,2.05
2022-08-08T23:17:46.744Z,2.10
2022-08-08T23:20:34.436Z,1.92
2022-08-08T23:23:14.908Z,2.40
2022-08-08T23:26:04.462Z,2.30
2022-08-08T23:28:51.454Z,2.50
2022-08-08T23:31:36.744Z,2.05
2022-08-08T23:34:25.443Z,2.40
2022-08-08T23:37:17.480Z,2.20
2022-08-08T23:40:05.558Z,2.10
2022-08-08T23:42:53.448Z,2.25
2022-08-08T23:49:03.467Z,2.25
2022-08-08T23:49:03.739Z,2.47
2022-08-08T23:52:05.037Z,2.40
2022-08-08T23:55:07.190Z,2.55
2022-08-08T23:58:08.456Z,2.22
